sensor_id;sensor_type;location;lat;lon;timestamp;pressure;altitude;pressure_sealevel;temperature;humidity
76808;BME280;65758;45.458;11.062;2023-12-20T00:01:06;101156.25;;;4.82;69.95
76808;BME280;65758;45.458;11.062;2023-12-20T00:03:33;101151.44;;;4.77;69.73
76808;BME280;65758;45.458;11.062;2023-12-20T00:06:08;101146.13;;;4.72;69.66
76808;BME280;65758;45.458;11.062;2023-12-20T00:08:36;101143.51;;;4.66;69.70
76808;BME280;65758;45.458;11.062;2023-12-20T00:11:03;101139.50;;;4.62;70.01
76808;BME280;65758;45.458;11.062;2023-12-20T00:13:29;101139.47;;;4.62;70.18
76808;BME280;65758;45.458;11.062;2023-12-20T00:15:56;101135.55;;;4.65;70.21
76808;BME280;65758;45.458;11.062;2023-12-20T00:18:23;101126.14;;;4.67;70.28
76808;BME280;65758;45.458;11.062;2023-12-20T00:20:50;101119.38;;;4.69;70.34
76808;BME280;65758;45.458;11.062;2023-12-20T00:23:17;101116.69;;;4.70;70.11
76808;BME280;65758;45.458;11.062;2023-12-20T00:25:44;101109.45;;;4.71;70.06
76808;BME280;65758;45.458;11.062;2023-12-20T00:28:10;101104.50;;;4.72;69.82
76808;BME280;65758;45.458;11.062;2023-12-20T00:30:37;101104.13;;;4.72;70.02
76808;BME280;65758;45.458;11.062;2023-12-20T00:33:04;101097.15;;;4.72;70.01
76808;BME280;65758;45.458;11.062;2023-12-20T00:35:31;101094.89;;;4.71;70.24
76808;BME280;65758;45.458;11.062;2023-12-20T00:37:58;101094.87;;;4.69;69.96
76808;BME280;65758;45.458;11.062;2023-12-20T00:40:25;101088.20;;;4.65;69.79
76808;BME280;65758;45.458;11.062;2023-12-20T00:42:52;101083.64;;;4.58;69.69
76808;BME280;65758;45.458;11.062;2023-12-20T00:45:19;101081.91;;;4.51;69.67
76808;BME280;65758;45.458;11.062;2023-12-20T00:47:46;101077.94;;;4.43;69.91
76808;BME280;65758;45.458;11.062;2023-12-20T00:50:13;101076.27;;;4.37;69.95
76808;BME280;65758;45.458;11.062;2023-12-20T00:52:40;101071.23;;;4.32;70.06
76808;BME280;65758;45.458;11.062;2023-12-20T00:55:07;101069.67;;;4.30;70.17
76808;BME280;65758;45.458;11.062;2023-12-20T00:57:34;101068.77;;;4.29;70.21
76808;BME280;65758;45.458;11.062;2023-12-20T01:00:02;101066.59;;;4.28;70.54
76808;BME280;65758;45.458;11.062;2023-12-20T01:02:29;101061.41;;;4.29;70.67
76808;BME280;65758;45.458;11.062;2023-12-20T01:04:55;101064.09;;;4.30;70.81
76808;BME280;65758;45.458;11.062;2023-12-20T01:07:22;101061.14;;;4.28;70.77
76808;BME280;65758;45.458;11.062;2023-12-20T01:09:49;101058.66;;;4.27;70.79
76808;BME280;65758;45.458;11.062;2023-12-20T01:12:16;101055.89;;;4.28;70.74
76808;BME280;65758;45.458;11.062;2023-12-20T01:14:43;101051.59;;;4.28;70.64
76808;BME280;65758;45.458;11.062;2023-12-20T01:17:09;101051.72;;;4.26;70.67
76808;BME280;65758;45.458;11.062;2023-12-20T01:19:36;101052.88;;;4.24;70.60
76808;BME280;65758;45.458;11.062;2023-12-20T01:22:04;101050.90;;;4.17;70.26
76808;BME280;65758;45.458;11.062;2023-12-20T01:24:31;101047.73;;;4.08;70.38
76808;BME280;65758;45.458;11.062;2023-12-20T01:26:58;101048.42;;;4.04;70.40
76808;BME280;65758;45.458;11.062;2023-12-20T01:29:24;101047.33;;;4.01;70.47
76808;BME280;65758;45.458;11.062;2023-12-20T01:31:51;101039.13;;;3.97;70.48
76808;BME280;65758;45.458;11.062;2023-12-20T01:34:18;101039.45;;;3.94;70.53
76808;BME280;65758;45.458;11.062;2023-12-20T01:36:45;101034.91;;;3.93;70.77
76808;BME280;65758;45.458;11.062;2023-12-20T01:39:12;101030.38;;;3.95;70.77
76808;BME280;65758;45.458;11.062;2023-12-20T01:41:53;101032.00;;;4.01;70.77
76808;BME280;65758;45.458;11.062;2023-12-20T01:44:20;101032.63;;;4.05;70.95
76808;BME280;65758;45.458;11.062;2023-12-20T01:46:47;101025.84;;;4.07;70.95
76808;BME280;65758;45.458;11.062;2023-12-20T01:49:14;101021.20;;;4.08;70.89
76808;BME280;65758;45.458;11.062;2023-12-20T01:51:42;101025.48;;;4.12;71.05
76808;BME280;65758;45.458;11.062;2023-12-20T01:54:10;101020.88;;;4.13;70.70
76808;BME280;65758;45.458;11.062;2023-12-20T01:56:37;101019.26;;;4.16;71.01
76808;BME280;65758;45.458;11.062;2023-12-20T01:59:05;101018.84;;;4.19;70.56
76808;BME280;65758;45.458;11.062;2023-12-20T02:01:34;101011.56;;;4.23;70.48
76808;BME280;65758;45.458;11.062;2023-12-20T02:08:23;100998.65;;;4.20;70.17
76808;BME280;65758;45.458;11.062;2023-12-20T02:10:49;100994.55;;;4.17;70.07
76808;BME280;65758;45.458;11.062;2023-12-20T02:13:16;100994.98;;;4.15;70.23
76808;BME280;65758;45.458;11.062;2023-12-20T02:15:43;100995.31;;;4.12;70.24
76808;BME280;65758;45.458;11.062;2023-12-20T02:18:10;100992.55;;;4.11;70.33
76808;BME280;65758;45.458;11.062;2023-12-20T02:20:42;100994.08;;;4.10;70.20
76808;BME280;65758;45.458;11.062;2023-12-20T02:23:08;100993.20;;;4.10;70.41
76808;BME280;65758;45.458;11.062;2023-12-20T02:25:35;100994.66;;;4.08;70.36
76808;BME280;65758;45.458;11.062;2023-12-20T02:28:02;100991.42;;;4.07;70.52
76808;BME280;65758;45.458;11.062;2023-12-20T02:30:29;100983.77;;;4.06;70.53
76808;BME280;65758;45.458;11.062;2023-12-20T02:32:55;100980.89;;;4.06;70.57
76808;BME280;65758;45.458;11.062;2023-12-20T02:35:22;100976.52;;;4.06;70.80
76808;BME280;65758;45.458;11.062;2023-12-20T02:37:49;100976.18;;;4.06;70.54
76808;BME280;65758;45.458;11.062;2023-12-20T02:40:16;100970.29;;;4.04;70.50
76808;BME280;65758;45.458;11.062;2023-12-20T02:42:43;100968.48;;;4.01;70.37
76808;BME280;65758;45.458;11.062;2023-12-20T02:45:10;100969.20;;;3.98;70.32
76808;BME280;65758;45.458;11.062;2023-12-20T02:47:36;100968.83;;;3.95;70.38
76808;BME280;65758;45.458;11.062;2023-12-20T02:50:03;100958.73;;;3.90;70.45
76808;BME280;65758;45.458;11.062;2023-12-20T02:52:30;100954.57;;;3.84;70.45
76808;BME280;65758;45.458;11.062;2023-12-20T02:54:57;100958.80;;;3.83;70.82
76808;BME280;65758;45.458;11.062;2023-12-20T02:57:24;100956.05;;;3.85;70.66
76808;BME280;65758;45.458;11.062;2023-12-20T02:59:50;100953.27;;;3.84;70.49
76808;BME280;65758;45.458;11.062;2023-12-20T03:02:17;100948.30;;;3.82;70.43
76808;BME280;65758;45.458;11.062;2023-12-20T03:04:44;100945.48;;;3.81;70.55
76808;BME280;65758;45.458;11.062;2023-12-20T03:07:11;100941.94;;;3.81;70.66
76808;BME280;65758;45.458;11.062;2023-12-20T03:09:38;100946.19;;;3.83;70.66
76808;BME280;65758;45.458;11.062;2023-12-20T03:12:25;100938.28;;;3.83;70.33
76808;BME280;65758;45.458;11.062;2023-12-20T03:14:52;100934.64;;;3.81;70.43
76808;BME280;65758;45.458;11.062;2023-12-20T03:17:18;100934.87;;;3.81;70.43
76808;BME280;65758;45.458;11.062;2023-12-20T03:19:47;100937.13;;;3.79;70.31
76808;BME280;65758;45.458;11.062;2023-12-20T03:22:14;100930.90;;;3.76;70.15
76808;BME280;65758;45.458;11.062;2023-12-20T03:24:41;100926.48;;;3.74;70.29
76808;BME280;65758;45.458;11.062;2023-12-20T03:27:07;100916.81;;;3.72;70.32
76808;BME280;65758;45.458;11.062;2023-12-20T03:29:34;100906.36;;;3.69;70.29
76808;BME280;65758;45.458;11.062;2023-12-20T03:32:01;100903.16;;;3.67;70.42
76808;BME280;65758;45.458;11.062;2023-12-20T03:34:28;100898.66;;;3.65;70.52
76808;BME280;65758;45.458;11.062;2023-12-20T03:36:56;100896.80;;;3.64;70.62
76808;BME280;65758;45.458;11.062;2023-12-20T03:39:22;100895.82;;;3.64;70.68
76808;BME280;65758;45.458;11.062;2023-12-20T03:41:49;100896.40;;;3.60;70.71
76808;BME280;65758;45.458;11.062;2023-12-20T03:44:16;100891.13;;;3.54;70.77
76808;BME280;65758;45.458;11.062;2023-12-20T03:46:42;100888.97;;;3.53;71.01
76808;BME280;65758;45.458;11.062;2023-12-20T03:49:09;100896.02;;;3.56;71.23
76808;BME280;65758;45.458;11.062;2023-12-20T03:51:36;100892.85;;;3.58;71.36
76808;BME280;65758;45.458;11.062;2023-12-20T03:54:03;100894.71;;;3.60;71.33
76808;BME280;65758;45.458;11.062;2023-12-20T03:56:30;100892.22;;;3.63;71.21
76808;BME280;65758;45.458;11.062;2023-12-20T03:58:56;100892.44;;;3.66;71.13
76808;BME280;65758;45.458;11.062;2023-12-20T04:01:23;100889.89;;;3.68;71.08
76808;BME280;65758;45.458;11.062;2023-12-20T04:03:50;100887.79;;;3.70;71.18
76808;BME280;65758;45.458;11.062;2023-12-20T04:06:18;100884.15;;;3.75;71.12
76808;BME280;65758;45.458;11.062;2023-12-20T04:08:45;100887.22;;;3.83;71.25
76808;BME280;65758;45.458;11.062;2023-12-20T04:11:12;100886.09;;;3.93;72.00
76808;BME280;65758;45.458;11.062;2023-12-20T04:13:38;100877.28;;;4.01;71.77
76808;BME280;65758;45.458;11.062;2023-12-20T04:16:05;100870.52;;;4.09;71.89
76808;BME280;65758;45.458;11.062;2023-12-20T04:18:32;100868.92;;;4.14;71.87
76808;BME280;65758;45.458;11.062;2023-12-20T04:20:59;100863.35;;;4.16;71.74
76808;BME280;65758;45.458;11.062;2023-12-20T04:23:26;100864.09;;;4.19;71.80
76808;BME280;65758;45.458;11.062;2023-12-20T04:25:53;100860.07;;;4.20;71.67
76808;BME280;65758;45.458;11.062;2023-12-20T04:28:20;100856.27;;;4.18;71.75
76808;BME280;65758;45.458;11.062;2023-12-20T04:30:46;100853.73;;;4.17;71.43
76808;BME280;65758;45.458;11.062;2023-12-20T04:33:13;100852.88;;;4.13;71.41
76808;BME280;65758;45.458;11.062;2023-12-20T04:35:40;100852.52;;;4.10;71.44
76808;BME280;65758;45.458;11.062;2023-12-20T04:38:09;100853.30;;;4.07;71.39
76808;BME280;65758;45.458;11.062;2023-12-20T04:40:36;100852.55;;;4.06;71.44
76808;BME280;65758;45.458;11.062;2023-12-20T04:43:03;100850.95;;;4.04;71.41
76808;BME280;65758;45.458;11.062;2023-12-20T04:45:29;100852.56;;;4.03;71.42
76808;BME280;65758;45.458;11.062;2023-12-20T04:47:56;100841.85;;;4.05;71.41
76808;BME280;65758;45.458;11.062;2023-12-20T04:50:23;100844.50;;;4.08;71.50
76808;BME280;65758;45.458;11.062;2023-12-20T04:52:51;100850.85;;;4.09;71.27
76808;BME280;65758;45.458;11.062;2023-12-20T04:55:18;100854.04;;;4.09;71.25
76808;BME280;65758;45.458;11.062;2023-12-20T04:57:44;100848.19;;;4.04;71.19
76808;BME280;65758;45.458;11.062;2023-12-20T05:00:12;100837.60;;;4.03;71.51
76808;BME280;65758;45.458;11.062;2023-12-20T05:02:39;100836.94;;;4.02;71.49
76808;BME280;65758;45.458;11.062;2023-12-20T05:05:05;100844.49;;;4.04;71.47
76808;BME280;65758;45.458;11.062;2023-12-20T05:07:32;100846.23;;;4.03;71.47
76808;BME280;65758;45.458;11.062;2023-12-20T05:09:59;100838.23;;;4.02;71.44
76808;BME280;65758;45.458;11.062;2023-12-20T05:12:26;100833.19;;;4.00;71.31
76808;BME280;65758;45.458;11.062;2023-12-20T05:14:53;100835.66;;;3.99;71.42
76808;BME280;65758;45.458;11.062;2023-12-20T05:17:20;100834.52;;;4.00;71.27
76808;BME280;65758;45.458;11.062;2023-12-20T05:19:47;100842.29;;;4.00;71.66
76808;BME280;65758;45.458;11.062;2023-12-20T05:22:14;100848.77;;;3.98;71.83
76808;BME280;65758;45.458;11.062;2023-12-20T05:24:40;100853.32;;;3.99;71.91
76808;BME280;65758;45.458;11.062;2023-12-20T05:27:07;100853.95;;;3.96;71.49
76808;BME280;65758;45.458;11.062;2023-12-20T05:29:34;100851.63;;;3.93;71.98
76808;BME280;65758;45.458;11.062;2023-12-20T05:32:01;100848.64;;;3.95;71.96
76808;BME280;65758;45.458;11.062;2023-12-20T05:34:27;100840.73;;;3.98;71.96
76808;BME280;65758;45.458;11.062;2023-12-20T05:36:54;100839.27;;;4.02;71.98
76808;BME280;65758;45.458;11.062;2023-12-20T05:39:21;100828.92;;;4.06;71.79
76808;BME280;65758;45.458;11.062;2023-12-20T05:41:48;100830.15;;;4.08;71.95
76808;BME280;65758;45.458;11.062;2023-12-20T05:44:15;100836.76;;;4.07;71.91
76808;BME280;65758;45.458;11.062;2023-12-20T05:46:42;100834.30;;;4.06;71.79
76808;BME280;65758;45.458;11.062;2023-12-20T05:49:08;100827.67;;;4.09;71.77
76808;BME280;65758;45.458;11.062;2023-12-20T05:51:36;100822.55;;;4.13;71.94
76808;BME280;65758;45.458;11.062;2023-12-20T05:54:02;100823.79;;;4.20;72.01
76808;BME280;65758;45.458;11.062;2023-12-20T05:56:30;100821.91;;;4.23;72.17
76808;BME280;65758;45.458;11.062;2023-12-20T05:58:57;100823.36;;;4.27;71.96
76808;BME280;65758;45.458;11.062;2023-12-20T06:01:25;100822.27;;;4.32;71.82
76808;BME280;65758;45.458;11.062;2023-12-20T06:03:52;100819.67;;;4.36;71.93
76808;BME280;65758;45.458;11.062;2023-12-20T06:06:19;100818.92;;;4.39;71.89
76808;BME280;65758;45.458;11.062;2023-12-20T06:08:45;100822.16;;;4.41;71.74
76808;BME280;65758;45.458;11.062;2023-12-20T06:11:12;100825.23;;;4.39;71.51
76808;BME280;65758;45.458;11.062;2023-12-20T06:13:40;100818.09;;;4.37;71.74
76808;BME280;65758;45.458;11.062;2023-12-20T06:16:07;100814.86;;;4.35;71.68
76808;BME280;65758;45.458;11.062;2023-12-20T06:18:34;100812.80;;;4.33;71.66
76808;BME280;65758;45.458;11.062;2023-12-20T06:21:04;100804.44;;;4.32;71.62
76808;BME280;65758;45.458;11.062;2023-12-20T06:23:31;100802.67;;;4.34;71.87
76808;BME280;65758;45.458;11.062;2023-12-20T06:25:57;100807.44;;;4.38;71.87
76808;BME280;65758;45.458;11.062;2023-12-20T06:28:24;100810.16;;;4.44;72.06
76808;BME280;65758;45.458;11.062;2023-12-20T06:30:51;100810.16;;;4.49;72.10
76808;BME280;65758;45.458;11.062;2023-12-20T06:33:20;100802.27;;;4.51;72.11
76808;BME280;65758;45.458;11.062;2023-12-20T06:35:48;100793.20;;;4.53;72.05
76808;BME280;65758;45.458;11.062;2023-12-20T06:38:15;100790.31;;;4.54;72.16
76808;BME280;65758;45.458;11.062;2023-12-20T06:40:42;100794.41;;;4.55;72.01
76808;BME280;65758;45.458;11.062;2023-12-20T06:43:09;100794.95;;;4.55;72.03
76808;BME280;65758;45.458;11.062;2023-12-20T06:45:51;100794.84;;;4.56;72.02
76808;BME280;65758;45.458;11.062;2023-12-20T06:48:18;100793.43;;;4.57;72.06
76808;BME280;65758;45.458;11.062;2023-12-20T06:50:46;100790.88;;;4.59;72.15
76808;BME280;65758;45.458;11.062;2023-12-20T06:53:13;100789.48;;;4.60;71.99
76808;BME280;65758;45.458;11.062;2023-12-20T06:55:39;100786.91;;;4.61;71.93
76808;BME280;65758;45.458;11.062;2023-12-20T06:58:06;100789.11;;;4.64;71.87
76808;BME280;65758;45.458;11.062;2023-12-20T07:00:33;100793.27;;;4.65;71.78
76808;BME280;65758;45.458;11.062;2023-12-20T07:03:01;100790.31;;;4.66;71.83
76808;BME280;65758;45.458;11.062;2023-12-20T07:05:27;100795.11;;;4.69;71.88
76808;BME280;65758;45.458;11.062;2023-12-20T07:07:54;100797.63;;;4.74;71.96
76808;BME280;65758;45.458;11.062;2023-12-20T07:10:21;100795.80;;;4.77;71.79
76808;BME280;65758;45.458;11.062;2023-12-20T07:12:48;100796.29;;;4.79;71.94
76808;BME280;65758;45.458;11.062;2023-12-20T07:15:15;100803.10;;;4.81;72.04
76808;BME280;65758;45.458;11.062;2023-12-20T07:17:42;100807.17;;;4.82;71.99
76808;BME280;65758;45.458;11.062;2023-12-20T07:20:11;100812.39;;;4.82;72.10
76808;BME280;65758;45.458;11.062;2023-12-20T07:22:38;100819.59;;;4.82;72.16
76808;BME280;65758;45.458;11.062;2023-12-20T07:25:07;100822.27;;;4.82;72.07
76808;BME280;65758;45.458;11.062;2023-12-20T07:27:34;100824.65;;;4.83;72.11
76808;BME280;65758;45.458;11.062;2023-12-20T07:30:01;100831.03;;;4.86;72.17
76808;BME280;65758;45.458;11.062;2023-12-20T07:32:27;100832.80;;;4.91;72.17
76808;BME280;65758;45.458;11.062;2023-12-20T07:34:54;100837.09;;;4.96;71.96
76808;BME280;65758;45.458;11.062;2023-12-20T07:37:21;100844.88;;;5.01;71.93
76808;BME280;65758;45.458;11.062;2023-12-20T07:39:48;100845.85;;;5.05;72.03
76808;BME280;65758;45.458;11.062;2023-12-20T07:42:15;100839.30;;;5.08;72.09
76808;BME280;65758;45.458;11.062;2023-12-20T07:44:42;100836.11;;;5.11;71.96
76808;BME280;65758;45.458;11.062;2023-12-20T07:47:09;100838.91;;;5.14;72.26
76808;BME280;65758;45.458;11.062;2023-12-20T07:49:35;100824.88;;;5.17;72.27
76808;BME280;65758;45.458;11.062;2023-12-20T07:52:02;100817.85;;;5.21;72.15
76808;BME280;65758;45.458;11.062;2023-12-20T07:54:29;100823.67;;;5.23;71.78
76808;BME280;65758;45.458;11.062;2023-12-20T07:56:56;100829.64;;;5.25;71.51
76808;BME280;65758;45.458;11.062;2023-12-20T07:59:23;100838.11;;;5.25;71.89
76808;BME280;65758;45.458;11.062;2023-12-20T08:01:58;100843.07;;;5.26;72.01
76808;BME280;65758;45.458;11.062;2023-12-20T08:04:26;100841.05;;;5.27;72.13
76808;BME280;65758;45.458;11.062;2023-12-20T08:06:53;100840.40;;;5.27;72.08
76808;BME280;65758;45.458;11.062;2023-12-20T08:09:20;100839.54;;;5.30;72.31
76808;BME280;65758;45.458;11.062;2023-12-20T08:11:48;100839.39;;;5.39;72.30
76808;BME280;65758;45.458;11.062;2023-12-20T08:14:15;100842.66;;;5.51;72.32
76808;BME280;65758;45.458;11.062;2023-12-20T08:16:42;100844.15;;;5.60;72.03
76808;BME280;65758;45.458;11.062;2023-12-20T08:19:09;100846.55;;;5.68;71.99
76808;BME280;65758;45.458;11.062;2023-12-20T08:21:36;100846.42;;;5.76;71.77
76808;BME280;65758;45.458;11.062;2023-12-20T08:24:05;100844.11;;;5.80;71.87
76808;BME280;65758;45.458;11.062;2023-12-20T08:26:32;100845.91;;;5.85;71.38
76808;BME280;65758;45.458;11.062;2023-12-20T08:28:59;100852.60;;;5.90;71.23
76808;BME280;65758;45.458;11.062;2023-12-20T08:31:28;100851.02;;;5.94;71.17
76808;BME280;65758;45.458;11.062;2023-12-20T08:33:55;100862.31;;;5.96;71.88
76808;BME280;65758;45.458;11.062;2023-12-20T08:36:23;100863.48;;;5.99;71.93
76808;BME280;65758;45.458;11.062;2023-12-20T08:38:51;100856.63;;;6.02;71.58
76808;BME280;65758;45.458;11.062;2023-12-20T08:41:18;100858.04;;;6.04;71.60
76808;BME280;65758;45.458;11.062;2023-12-20T08:43:44;100861.08;;;6.07;71.78
76808;BME280;65758;45.458;11.062;2023-12-20T08:46:11;100858.35;;;6.09;71.59
76808;BME280;65758;45.458;11.062;2023-12-20T08:48:39;100857.11;;;6.12;71.40
76808;BME280;65758;45.458;11.062;2023-12-20T08:51:06;100852.27;;;6.16;71.51
76808;BME280;65758;45.458;11.062;2023-12-20T08:53:35;100856.55;;;6.19;71.44
76808;BME280;65758;45.458;11.062;2023-12-20T08:56:02;100863.77;;;6.22;71.37
76808;BME280;65758;45.458;11.062;2023-12-20T08:58:29;100868.13;;;6.28;71.11
76808;BME280;65758;45.458;11.062;2023-12-20T09:00:56;100860.39;;;6.32;70.88
76808;BME280;65758;45.458;11.062;2023-12-20T09:03:24;100855.90;;;6.34;71.03
76808;BME280;65758;45.458;11.062;2023-12-20T09:05:51;100848.89;;;6.35;71.08
76808;BME280;65758;45.458;11.062;2023-12-20T09:08:18;100850.05;;;6.35;70.98
76808;BME280;65758;45.458;11.062;2023-12-20T09:10:45;100851.15;;;6.33;70.79
76808;BME280;65758;45.458;11.062;2023-12-20T09:13:12;100849.79;;;6.34;71.57
76808;BME280;65758;45.458;11.062;2023-12-20T09:15:39;100857.82;;;6.35;71.16
76808;BME280;65758;45.458;11.062;2023-12-20T09:18:06;100865.27;;;6.36;71.38
76808;BME280;65758;45.458;11.062;2023-12-20T09:20:34;100864.79;;;6.40;71.38
76808;BME280;65758;45.458;11.062;2023-12-20T09:23:01;100861.90;;;6.44;71.13
76808;BME280;65758;45.458;11.062;2023-12-20T09:25:27;100864.81;;;6.48;70.97
76808;BME280;65758;45.458;11.062;2023-12-20T09:27:55;100869.72;;;6.49;71.16
76808;BME280;65758;45.458;11.062;2023-12-20T09:30:22;100871.41;;;6.50;71.10
76808;BME280;65758;45.458;11.062;2023-12-20T09:32:54;100874.05;;;6.52;70.74
76808;BME280;65758;45.458;11.062;2023-12-20T09:35:21;100869.69;;;6.55;70.88
76808;BME280;65758;45.458;11.062;2023-12-20T09:37:49;100862.35;;;6.58;71.03
76808;BME280;65758;45.458;11.062;2023-12-20T09:40:18;100855.99;;;6.60;71.13
76808;BME280;65758;45.458;11.062;2023-12-20T09:43:08;100846.40;;;6.61;70.75
76808;BME280;65758;45.458;11.062;2023-12-20T09:45:37;100837.50;;;6.64;70.96
76808;BME280;65758;45.458;11.062;2023-12-20T09:48:07;100834.14;;;6.66;70.86
76808;BME280;65758;45.458;11.062;2023-12-20T09:50:36;100831.92;;;6.66;70.85
76808;BME280;65758;45.458;11.062;2023-12-20T09:53:04;100832.71;;;6.67;70.72
76808;BME280;65758;45.458;11.062;2023-12-20T09:55:32;100827.35;;;6.69;70.67
76808;BME280;65758;45.458;11.062;2023-12-20T09:58:00;100824.19;;;6.74;70.98
76808;BME280;65758;45.458;11.062;2023-12-20T10:00:27;100822.76;;;6.80;71.08
76808;BME280;65758;45.458;11.062;2023-12-20T10:02:58;100823.45;;;6.83;71.57
76808;BME280;65758;45.458;11.062;2023-12-20T10:05:32;100821.84;;;6.86;71.43
76808;BME280;65758;45.458;11.062;2023-12-20T10:08:00;100814.59;;;6.84;70.98
76808;BME280;65758;45.458;11.062;2023-12-20T10:10:28;100811.23;;;6.87;70.98
76808;BME280;65758;45.458;11.062;2023-12-20T10:13:11;100809.19;;;6.92;71.08
76808;BME280;65758;45.458;11.062;2023-12-20T10:15:39;100805.39;;;6.96;70.88
76808;BME280;65758;45.458;11.062;2023-12-20T10:18:08;100802.82;;;7.00;71.04
76808;BME280;65758;45.458;11.062;2023-12-20T10:20:36;100794.25;;;7.02;70.70
76808;BME280;65758;45.458;11.062;2023-12-20T10:23:03;100786.15;;;7.04;70.32
76808;BME280;65758;45.458;11.062;2023-12-20T10:25:30;100785.77;;;7.06;70.69
76808;BME280;65758;45.458;11.062;2023-12-20T10:28:13;100783.20;;;7.09;70.84
76808;BME280;65758;45.458;11.062;2023-12-20T10:30:42;100780.82;;;7.14;70.73
76808;BME280;65758;45.458;11.062;2023-12-20T10:33:10;100776.11;;;7.19;70.78
76808;BME280;65758;45.458;11.062;2023-12-20T10:35:38;100778.52;;;7.25;70.55
76808;BME280;65758;45.458;11.062;2023-12-20T10:38:11;100784.56;;;7.27;70.20
76808;BME280;65758;45.458;11.062;2023-12-20T10:40:40;100796.29;;;7.30;70.44
76808;BME280;65758;45.458;11.062;2023-12-20T10:43:08;100796.26;;;7.33;69.83
76808;BME280;65758;45.458;11.062;2023-12-20T10:45:36;100784.59;;;7.35;70.09
76808;BME280;65758;45.458;11.062;2023-12-20T10:48:04;100775.88;;;7.35;70.22
76808;BME280;65758;45.458;11.062;2023-12-20T10:50:31;100777.50;;;7.31;69.63
76808;BME280;65758;45.458;11.062;2023-12-20T10:52:58;100782.77;;;7.29;69.82
76808;BME280;65758;45.458;11.062;2023-12-20T10:55:27;100775.56;;;7.28;69.95
76808;BME280;65758;45.458;11.062;2023-12-20T10:58:00;100769.98;;;7.26;70.08
76808;BME280;65758;45.458;11.062;2023-12-20T11:00:28;100769.10;;;7.26;70.04
76808;BME280;65758;45.458;11.062;2023-12-20T11:03:00;100762.17;;;7.22;69.50
76808;BME280;65758;45.458;11.062;2023-12-20T11:05:46;100760.17;;;7.19;69.90
76808;BME280;65758;45.458;11.062;2023-12-20T11:08:22;100764.91;;;7.16;69.77
76808;BME280;65758;45.458;11.062;2023-12-20T11:11:16;100770.95;;;7.15;69.56
76808;BME280;65758;45.458;11.062;2023-12-20T11:14:02;100777.23;;;7.18;69.43
76808;BME280;65758;45.458;11.062;2023-12-20T11:16:33;100772.64;;;7.21;69.85
76808;BME280;65758;45.458;11.062;2023-12-20T11:19:17;100777.35;;;7.27;70.27
76808;BME280;65758;45.458;11.062;2023-12-20T11:21:46;100774.86;;;7.33;70.16
76808;BME280;65758;45.458;11.062;2023-12-20T11:24:13;100774.20;;;7.39;70.17
76808;BME280;65758;45.458;11.062;2023-12-20T11:26:46;100772.80;;;7.44;70.75
76808;BME280;65758;45.458;11.062;2023-12-20T11:29:34;100772.36;;;7.52;71.19
76808;BME280;65758;45.458;11.062;2023-12-20T11:35:00;100768.47;;;7.57;69.13
76808;BME280;65758;45.458;11.062;2023-12-20T11:37:31;100769.05;;;7.57;69.49
76808;BME280;65758;45.458;11.062;2023-12-20T11:40:05;100769.05;;;7.57;69.32
76808;BME280;65758;45.458;11.062;2023-12-20T11:42:39;100769.39;;;7.59;69.94
76808;BME280;65758;45.458;11.062;2023-12-20T11:45:19;100766.60;;;7.61;69.54
76808;BME280;65758;45.458;11.062;2023-12-20T11:47:50;100756.41;;;7.64;69.42
76808;BME280;65758;45.458;11.062;2023-12-20T11:50:18;100749.56;;;7.69;69.20
76808;BME280;65758;45.458;11.062;2023-12-20T11:52:45;100735.73;;;7.74;68.78
76808;BME280;65758;45.458;11.062;2023-12-20T11:55:12;100726.60;;;7.76;69.10
76808;BME280;65758;45.458;11.062;2023-12-20T11:57:39;100721.41;;;7.80;68.81
76808;BME280;65758;45.458;11.062;2023-12-20T12:00:06;100724.04;;;7.85;69.05
76808;BME280;65758;45.458;11.062;2023-12-20T12:02:39;100727.40;;;7.89;69.11
76808;BME280;65758;45.458;11.062;2023-12-20T12:05:06;100725.30;;;7.94;69.04
76808;BME280;65758;45.458;11.062;2023-12-20T12:07:34;100716.55;;;7.99;69.20
76808;BME280;65758;45.458;11.062;2023-12-20T12:10:02;100716.83;;;8.05;69.56
76808;BME280;65758;45.458;11.062;2023-12-20T12:12:30;100718.04;;;8.12;69.57
76808;BME280;65758;45.458;11.062;2023-12-20T12:14:59;100716.52;;;8.19;69.18
76808;BME280;65758;45.458;11.062;2023-12-20T12:17:26;100709.75;;;8.25;69.17
76808;BME280;65758;45.458;11.062;2023-12-20T12:20:02;100707.59;;;8.30;68.72
76808;BME280;65758;45.458;11.062;2023-12-20T12:22:31;100701.35;;;8.30;68.39
76808;BME280;65758;45.458;11.062;2023-12-20T12:25:05;100697.61;;;8.31;68.36
76808;BME280;65758;45.458;11.062;2023-12-20T12:27:35;100692.54;;;8.34;68.93
76808;BME280;65758;45.458;11.062;2023-12-20T12:30:05;100689.97;;;8.36;68.95
76808;BME280;65758;45.458;11.062;2023-12-20T12:32:36;100684.02;;;8.39;68.94
76808;BME280;65758;45.458;11.062;2023-12-20T12:35:04;100675.48;;;8.40;68.86
76808;BME280;65758;45.458;11.062;2023-12-20T12:37:38;100675.32;;;8.42;68.82
76808;BME280;65758;45.458;11.062;2023-12-20T12:40:16;100680.59;;;8.45;69.43
76808;BME280;65758;45.458;11.062;2023-12-20T12:42:44;100685.73;;;8.48;69.01
76808;BME280;65758;45.458;11.062;2023-12-20T12:45:12;100687.31;;;8.52;69.14
76808;BME280;65758;45.458;11.062;2023-12-20T12:47:39;100688.48;;;8.57;69.17
76808;BME280;65758;45.458;11.062;2023-12-20T12:50:06;100690.77;;;8.62;68.81
76808;BME280;65758;45.458;11.062;2023-12-20T12:52:33;100686.68;;;8.67;68.61
76808;BME280;65758;45.458;11.062;2023-12-20T12:55:02;100682.17;;;8.72;68.58
76808;BME280;65758;45.458;11.062;2023-12-20T12:57:32;100676.23;;;8.77;68.84
76808;BME280;65758;45.458;11.062;2023-12-20T13:00:00;100660.81;;;8.81;68.82
76808;BME280;65758;45.458;11.062;2023-12-20T13:02:29;100664.74;;;8.82;68.45